Time;durP1;ratioP1;P1;durP2;ratioP2;P2;SDS_P1;SDS_P2;PMS_P1;PMS_P2;Temp;Humidity;BMP_temperature;BMP_pressure;BME280_temperature;BME280_humidity;BME280_pressure;Samples;Min_cycle;Max_cycle;Signal;HPM_P1;HPM_P2
2023/01/20 00:01:46;;;;;;;36.97;21.37;;;2.40;99.90;;;2.32;80.02;99553.69;5086798;28;20247;-65
2023/01/20 00:04:17;;;;;;;40.40;20.90;;;2.40;99.90;;;2.31;80.59;99560.47;5085744;28;20270;-65
2023/01/20 00:06:47;;;;;;;39.33;21.30;;;2.40;99.90;;;2.35;80.00;99559.66;5089278;28;20203;-67
2023/01/20 00:09:17;;;;;;;36.70;19.53;;;2.40;99.90;;;2.34;79.76;99564.75;5037124;28;20212;-66
2023/01/20 00:11:46;;;;;;;36.27;21.43;;;2.40;99.90;;;2.33;79.97;99565.59;5087394;28;20596;-65
2023/01/20 00:14:16;;;;;;;37.80;20.07;;;2.40;99.90;;;2.31;79.67;99568.09;5088921;28;20208;-67
2023/01/20 00:16:45;;;;;;;36.30;20.60;;;2.40;99.90;;;2.32;80.29;99579.97;5089294;28;20253;-66
2023/01/20 00:19:15;;;;;;;33.67;20.83;;;2.40;99.90;;;2.31;80.27;99585.88;5081164;28;20716;-66
2023/01/20 00:21:43;;;;;;;34.50;20.37;;;2.40;99.90;;;2.34;80.49;99588.47;5081151;28;20201;-64
2023/01/20 00:24:14;;;;;;;35.17;19.70;;;2.40;99.90;;;2.36;79.71;99583.41;5085629;28;20208;-66
2023/01/20 00:26:42;;;;;;;32.73;19.03;;;2.40;99.90;;;2.37;80.52;99588.50;5088993;28;20197;-65
2023/01/20 00:29:11;;;;;;;33.30;19.43;;;2.40;99.90;;;2.35;79.91;99590.16;5079014;28;20618;-65
2023/01/20 00:31:39;;;;;;;37.83;19.97;;;2.40;99.90;;;2.33;79.76;99591.84;5087315;28;20334;-66
2023/01/20 00:34:09;;;;;;;31.40;18.50;;;2.40;99.90;;;2.28;79.37;99596.00;5085063;28;20212;-65
2023/01/20 00:36:38;;;;;;;35.13;19.60;;;2.40;99.90;;;2.28;80.63;99602.78;5085858;28;20708;-65
2023/01/20 00:39:06;;;;;;;34.40;19.57;;;2.30;99.90;;;2.28;80.72;99612.94;5089915;28;20212;-67
2023/01/20 00:41:36;;;;;;;32.27;18.90;;;2.30;99.90;;;2.28;80.40;99607.84;5084894;28;20200;-65
2023/01/20 00:44:06;;;;;;;33.90;18.70;;;2.40;99.90;;;2.27;80.08;99614.63;5085419;28;20193;-67
2023/01/20 00:46:34;;;;;;;31.30;18.53;;;2.40;99.90;;;2.27;80.65;99617.16;5087418;28;20200;-66
2023/01/20 00:49:02;;;;;;;33.77;19.10;;;2.40;99.90;;;2.28;80.45;99623.97;5091473;28;20205;-66
2023/01/20 00:51:31;;;;;;;35.77;20.20;;;2.40;99.90;;;2.27;79.75;99626.50;5089609;28;20703;-66
2023/01/20 00:53:59;;;;;;;29.67;18.17;;;2.30;99.90;;;2.27;79.65;99626.50;5078999;28;20343;-64
2023/01/20 00:56:28;;;;;;;31.37;18.67;;;2.30;99.90;;;2.24;80.13;99634.91;5092541;28;20653;-67
2023/01/20 00:58:59;;;;;;;30.30;17.93;;;2.30;99.90;;;2.21;80.46;99644.19;5087100;28;20594;-67
2023/01/20 01:01:27;;;;;;;31.53;17.57;;;2.30;99.90;;;2.15;80.83;99637.31;5082652;28;20291;-66
2023/01/20 01:03:56;;;;;;;32.07;17.60;;;2.30;99.90;;;2.13;80.26;99644.91;5091369;28;20227;-66
2023/01/20 01:06:24;;;;;;;29.73;17.37;;;2.30;99.90;;;2.13;80.81;99644.06;5091083;28;20204;-68
2023/01/20 01:08:53;;;;;;;27.87;16.97;;;2.20;99.90;;;2.15;80.70;99652.56;5090900;28;20213;-66
2023/01/20 01:11:21;;;;;;;28.47;16.53;;;2.20;99.90;;;2.15;80.45;99642.41;5088145;28;20348;-66
2023/01/20 01:13:50;;;;;;;30.20;17.27;;;2.20;99.90;;;2.13;80.80;99637.28;5087865;28;20201;-65
2023/01/20 01:16:19;;;;;;;28.60;16.17;;;2.20;99.90;;;2.15;80.65;99640.72;5091692;28;20212;-68
2023/01/20 01:18:48;;;;;;;27.87;16.97;;;2.30;99.90;;;2.17;80.25;99643.28;5089998;28;20264;-65
2023/01/20 01:21:17;;;;;;;26.33;16.10;;;2.30;99.90;;;2.14;80.46;99645.78;5091313;28;20618;-66
2023/01/20 01:23:45;;;;;;;28.70;16.17;;;2.30;99.90;;;2.14;80.70;99654.28;5087257;28;20209;-69
2023/01/20 01:26:14;;;;;;;27.77;16.50;;;2.20;99.90;;;2.10;80.74;99646.53;5084858;28;20262;-68
2023/01/20 01:28:42;;;;;;;29.73;17.17;;;2.20;99.90;;;2.12;80.94;99662.69;5090889;28;20208;-67
2023/01/20 01:31:11;;;;;;;27.90;16.57;;;2.20;99.90;;;2.10;80.73;99656.72;5090522;28;20570;-67
2023/01/20 01:33:41;;;;;;;29.83;16.87;;;2.20;99.90;;;2.12;80.98;99662.69;5090691;28;20200;-66
2023/01/20 01:36:14;;;;;;;28.33;16.07;;;2.20;99.90;;;2.13;80.46;99665.25;5092280;28;20205;-67
2023/01/20 01:38:44;;;;;;;26.30;15.67;;;2.20;99.90;;;2.14;80.80;99666.13;5091129;28;20657;-67
2023/01/20 01:41:25;;;;;;;30.03;16.23;;;2.20;99.90;;;2.14;80.85;99663.59;5087584;28;20736;-66
2023/01/20 01:44:03;;;;;;;28.97;16.03;;;2.20;99.90;;;2.14;81.14;99673.75;5090498;28;20225;-66
2023/01/20 01:46:32;;;;;;;26.37;15.43;;;2.20;99.90;;;2.11;81.34;99666.91;5090422;28;20261;-66
2023/01/20 01:49:06;;;;;;;29.57;16.40;;;2.20;99.90;;;2.11;81.28;99661.84;5086356;28;20234;-67
2023/01/20 01:51:40;;;;;;;29.50;16.90;;;2.20;99.90;;;2.13;81.32;99669.47;5089950;28;20217;-65
2023/01/20 01:54:12;;;;;;;30.00;16.67;;;2.30;99.90;;;2.12;81.36;99665.22;5091185;28;20265;-65
2023/01/20 01:56:43;;;;;;;29.33;16.80;;;2.30;99.90;;;2.13;81.40;99664.38;5088093;28;20278;-66
2023/01/20 01:59:15;;;;;;;31.17;17.40;;;2.30;99.90;;;2.13;81.32;99669.47;5086786;28;20626;-66
2023/01/20 02:01:49;;;;;;;29.50;16.70;;;2.30;99.90;;;2.12;81.15;99666.09;5088401;28;20221;-65
2023/01/20 02:04:22;;;;;;;33.67;17.57;;;2.30;99.90;;;2.11;80.51;99666.06;5083498;28;20227;-66
2023/01/20 02:06:54;;;;;;;29.37;16.43;;;2.30;99.90;;;2.11;81.13;99666.06;5076188;28;20191;-65
2023/01/20 02:09:23;;;;;;;29.83;16.53;;;2.20;99.90;;;2.12;81.14;99668.63;5090529;28;20209;-65
2023/01/20 02:11:56;;;;;;;28.47;16.23;;;2.30;99.90;;;2.12;80.52;99663.53;5091302;28;20705;-67
2023/01/20 02:14:31;;;;;;;30.77;17.53;;;2.30;99.90;;;2.13;81.13;99669.47;5089176;28;20193;-67
2023/01/20 02:17:11;;;;;;;30.17;17.10;;;2.30;99.90;;;2.14;80.61;99671.22;5090356;28;20601;-66
2023/01/20 02:20:26;;;;;;;29.70;16.70;;;2.30;99.90;;;2.21;81.29;99679.75;5089499;28;20262;-65
2023/01/20 02:23:03;;;;;;;28.37;16.70;;;2.30;99.90;;;2.24;80.44;99689.97;5077917;28;20230;-65
2023/01/20 02:26:11;;;;;;;31.80;17.50;;;2.30;99.90;;;2.26;80.34;99686.66;5085701;28;20196;-65
2023/01/20 02:29:24;;;;;;;29.43;16.93;;;2.30;99.90;;;2.29;80.55;99675.69;5084035;28;20583;-66
2023/01/20 02:32:16;;;;;;;31.53;17.00;;;2.40;99.90;;;2.35;80.13;99676.59;5073046;28;20220;-66
2023/01/20 02:34:52;;;;;;;29.73;17.33;;;2.40;99.90;;;2.37;80.74;99682.59;5087863;28;20232;-66
2023/01/20 02:37:26;;;;;;;30.60;17.27;;;2.40;99.90;;;2.39;80.39;99683.47;5088946;28;20259;-66
2023/01/20 02:40:08;;;;;;;34.90;17.47;;;2.40;99.90;;;2.42;80.25;99688.59;5088605;28;20261;-65
2023/01/20 02:42:43;;;;;;;30.33;16.67;;;2.40;99.90;;;2.42;80.53;99683.50;5087504;28;20342;-67
2023/01/20 02:45:19;;;;;;;32.57;18.27;;;2.40;99.90;;;2.45;80.34;99681.84;5086212;28;20205;-68
2023/01/20 02:47:56;;;;;;;31.07;16.37;;;2.50;99.90;;;2.44;80.38;99675.06;5081190;28;20222;-66
2023/01/20 02:50:29;;;;;;;34.13;18.23;;;2.50;99.90;;;2.46;80.21;99679.31;5087397;28;20751;-66
2023/01/20 02:53:01;;;;;;;33.40;17.93;;;2.50;99.90;;;2.49;79.78;99678.50;5082552;28;20216;-67
2023/01/20 02:55:37;;;;;;;33.57;16.47;;;2.50;99.90;;;2.48;80.11;99664.09;5088378;28;20643;-67
2023/01/20 02:58:12;;;;;;;29.10;16.30;;;2.50;99.90;;;2.52;79.99;99673.47;5090617;28;20303;-67
2023/01/20 03:00:46;;;;;;;33.53;18.70;;;2.50;99.90;;;2.53;80.10;99673.50;5089329;28;20216;-68
2023/01/20 03:03:22;;;;;;;31.23;16.43;;;2.50;99.90;;;2.55;79.60;99673.53;5086920;28;20219;-68
2023/01/20 03:05:55;;;;;;;30.33;16.33;;;2.50;99.90;;;2.56;79.31;99672.69;5083516;28;20704;-66
2023/01/20 03:08:28;;;;;;;31.90;17.27;;;2.50;99.90;;;2.55;79.50;99663.34;5089681;28;20597;-66
2023/01/20 03:11:02;;;;;;;36.93;18.03;;;2.60;99.90;;;2.54;79.72;99665.06;5084309;28;20204;-66
2023/01/20 03:13:35;;;;;;;33.30;17.80;;;2.60;99.90;;;2.54;79.76;99671.78;5082796;28;20278;-66
2023/01/20 03:16:08;;;;;;;34.33;17.20;;;2.60;99.90;;;2.53;79.25;99677.72;5088604;28;20239;-66
2023/01/20 03:18:39;;;;;;;35.07;16.90;;;2.50;99.90;;;2.50;79.66;99685.31;5087465;28;20207;-67
2023/01/20 03:21:10;;;;;;;34.97;17.77;;;2.50;99.90;;;2.49;79.29;99684.44;5089008;28;20201;-66
2023/01/20 03:23:41;;;;;;;29.47;15.53;;;2.50;99.90;;;2.51;79.46;99681.94;5088868;28;20278;-67
2023/01/20 03:26:13;;;;;;;34.93;17.73;;;2.50;99.90;;;2.53;79.49;99685.34;5088994;28;20273;-66
2023/01/20 03:28:43;;;;;;;34.23;17.07;;;2.50;99.90;;;2.56;80.13;99686.25;5085139;28;20251;-67
2023/01/20 03:31:17;;;;;;;32.20;16.67;;;2.50;99.90;;;2.53;80.04;99686.19;5085581;28;20216;-66
2023/01/20 03:33:49;;;;;;;35.10;17.73;;;2.60;99.90;;;2.56;79.22;99696.44;5088439;28;20204;-67
2023/01/20 03:36:20;;;;;;;32.73;16.80;;;2.60;99.90;;;2.56;79.70;99695.56;5090186;28;20197;-67
2023/01/20 03:38:50;;;;;;;32.93;16.50;;;2.70;99.90;;;2.55;79.53;99694.72;5090376;28;20247;-66
2023/01/20 03:41:40;;;;;;;30.50;16.87;;;2.60;99.90;;;2.54;79.80;99697.22;5088954;28;20250;-66
2023/01/20 03:44:14;;;;;;;36.27;18.57;;;2.60;99.90;;;2.52;79.52;99704.84;5084499;28;20225;-67
2023/01/20 03:46:50;;;;;;;33.30;17.30;;;2.60;99.90;;;2.46;79.22;99702.19;5085659;28;20733;-68
2023/01/20 03:49:29;;;;;;;37.50;19.10;;;2.50;99.90;;;2.46;79.80;99716.59;5089347;28;20196;-67
2023/01/20 03:52:04;;;;;;;36.87;17.70;;;2.50;99.90;;;2.41;80.42;99717.38;5081737;28;20440;-66
2023/01/20 03:54:42;;;;;;;38.90;18.70;;;2.50;99.90;;;2.40;80.11;99727.56;5088601;28;20203;-67
2023/01/20 03:57:16;;;;;;;39.37;18.30;;;2.50;99.90;;;2.37;79.41;99741.06;5087621;28;20563;-68
2023/01/20 03:59:48;;;;;;;40.60;18.77;;;2.50;99.90;;;2.33;80.05;99734.22;5085703;28;20285;-66
2023/01/20 04:02:16;;;;;;;33.57;17.20;;;2.50;99.90;;;2.32;80.04;99746.88;5088100;28;20212;-66
2023/01/20 04:04:49;;;;;;;40.00;19.80;;;2.40;99.90;;;2.32;80.36;99759.59;5084866;28;20213;-68
2023/01/20 04:07:23;;;;;;;38.37;17.93;;;2.40;99.90;;;2.30;80.08;99759.56;5088854;28;20192;-67
2023/01/20 04:09:55;;;;;;;39.67;19.33;;;2.40;99.90;;;2.28;80.04;99757.84;5088287;28;20411;-66
2023/01/20 04:12:24;;;;;;;42.47;19.47;;;2.40;99.90;;;2.32;80.72;99769.75;5088081;28;20209;-68
2023/01/20 04:14:52;;;;;;;35.67;17.57;;;2.40;99.90;;;2.34;80.80;99771.50;5077935;28;20201;-67
2023/01/20 04:17:21;;;;;;;38.23;18.30;;;2.50;99.90;;;2.39;80.91;99774.13;5088711;28;20597;-66
2023/01/20 04:19:51;;;;;;;39.53;19.40;;;2.50;99.90;;;2.42;79.98;99774.19;5084422;28;20557;-68
2023/01/20 04:22:30;;;;;;;37.87;18.97;;;2.50;99.90;;;2.45;80.28;99781.88;5081295;28;20204;-67
2023/01/20 04:25:07;;;;;;;38.83;19.17;;;2.50;99.90;;;2.47;79.80;99776.78;5090858;28;20247;-68
2023/01/20 04:27:35;;;;;;;41.77;18.73;;;2.50;99.90;;;2.47;80.25;99775.13;5088713;28;20738;-66
2023/01/20 04:30:04;;;;;;;38.40;18.53;;;2.60;99.90;;;2.50;79.90;99784.47;5088481;28;20310;-68
2023/01/20 04:32:33;;;;;;;38.10;18.53;;;2.60;99.90;;;2.51;80.49;99791.28;5093345;28;20672;-67
2023/01/20 04:35:02;;;;;;;38.10;18.57;;;2.60;99.90;;;2.53;80.48;99795.56;5088626;28;20285;-68
2023/01/20 04:37:31;;;;;;;37.80;17.87;;;2.60;99.90;;;2.55;80.14;99795.59;5093075;28;20269;-67
2023/01/20 04:40:00;;;;;;;42.17;19.30;;;2.60;99.90;;;2.56;80.34;99799.84;5092416;28;20204;-69
2023/01/20 04:42:28;;;;;;;42.47;18.60;;;2.60;99.90;;;2.56;80.19;99807.47;5091884;28;20621;-66
2023/01/20 04:44:57;;;;;;;39.90;18.10;;;2.60;99.90;;;2.55;80.44;99808.31;5090712;28;21016;-67
2023/01/20 04:47:26;;;;;;;40.23;18.93;;;2.60;99.90;;;2.57;79.72;99809.19;5080590;28;20660;-67
2023/01/20 04:49:54;;;;;;;41.03;18.17;;;2.70;99.90;;;2.58;80.31;99816.00;5088146;28;20621;-67
2023/01/20 04:52:24;;;;;;;40.33;16.80;;;2.60;99.90;;;2.60;80.05;99825.34;5083373;28;20233;-66
2023/01/20 04:54:53;;;;;;;33.87;17.07;;;2.60;99.90;;;2.62;79.54;99823.69;5087579;28;20681;-66
2023/01/20 04:57:21;;;;;;;33.83;17.53;;;2.60;99.90;;;2.64;80.19;99828.81;5086766;28;20330;-67
2023/01/20 04:59:50;;;;;;;35.53;18.13;;;2.70;99.90;;;2.64;79.60;99836.44;5092148;28;20337;-70
2023/01/20 05:02:18;;;;;;;34.07;16.97;;;2.70;99.90;;;2.66;80.14;99839.88;5090560;28;20223;-67
2023/01/20 05:04:46;;;;;;;34.73;17.27;;;2.70;99.90;;;2.69;79.01;99834.84;5089081;28;20262;-67
2023/01/20 05:07:15;;;;;;;37.13;17.27;;;2.70;99.90;;;2.72;79.20;99837.41;5084331;28;20589;-67
2023/01/20 05:09:45;;;;;;;36.50;18.10;;;2.70;99.90;;;2.75;79.18;99841.69;5092732;28;20208;-69
2023/01/20 05:12:13;;;;;;;35.93;18.30;;;2.80;99.90;;;2.77;79.87;99846.00;5093056;28;20205;-68
2023/01/20 05:14:41;;;;;;;35.03;17.33;;;2.80;99.90;;;2.78;79.25;99831.59;5090381;28;20205;-66
2023/01/20 05:17:10;;;;;;;34.00;16.90;;;2.80;99.90;;;2.81;79.36;99849.44;5081540;28;20216;-67
2023/01/20 05:19:39;;;;;;;32.23;16.53;;;2.80;99.90;;;2.82;79.67;99846.91;5089013;28;20615;-65
2023/01/20 05:22:08;;;;;;;40.40;17.80;;;2.90;99.90;;;2.83;79.49;99842.69;5091296;28;20208;-67
2023/01/20 05:24:36;;;;;;;31.63;16.40;;;2.90;99.90;;;2.82;79.20;99843.53;5091620;28;20654;-67
2023/01/20 05:27:06;;;;;;;34.67;16.83;;;2.80;99.90;;;2.80;79.52;99853.69;5089319;28;20265;-67
2023/01/20 05:29:34;;;;;;;34.67;16.10;;;2.80;99.90;;;2.79;79.81;99863.81;5092777;28;20201;-67
2023/01/20 05:32:03;;;;;;;30.07;16.27;;;2.80;99.90;;;2.78;79.70;99860.41;5087769;28;20205;-65
2023/01/20 05:34:31;;;;;;;28.33;15.33;;;2.80;99.90;;;2.77;79.03;99873.97;5084871;28;20229;-66
2023/01/20 05:36:59;;;;;;;32.73;15.83;;;2.90;99.90;;;2.78;78.96;99875.69;5090774;28;20246;-68
2023/01/20 05:39:28;;;;;;;30.83;15.30;;;2.80;99.90;;;2.79;79.18;99879.09;5091014;28;20205;-67
2023/01/20 05:41:56;;;;;;;26.97;14.07;;;2.80;99.90;;;2.79;79.34;99872.31;5083387;28;20236;-67
2023/01/20 05:44:26;;;;;;;29.97;16.03;;;2.90;99.90;;;2.82;79.66;99877.44;5089195;28;20243;-67
2023/01/20 05:46:54;;;;;;;34.53;16.17;;;2.90;99.90;;;2.83;79.32;99873.22;5089228;28;20209;-67
2023/01/20 05:49:22;;;;;;;33.33;16.57;;;2.90;99.90;;;2.81;78.70;99880.84;5089340;28;20232;-67
2023/01/20 05:51:51;;;;;;;34.50;16.43;;;2.90;99.90;;;2.82;79.66;99891.84;5083130;28;21118;-66
2023/01/20 05:54:19;;;;;;;28.93;15.10;;;2.80;99.90;;;2.79;78.87;99897.75;5090236;28;20313;-66
2023/01/20 05:56:48;;;;;;;31.80;16.30;;;2.90;99.90;;;2.77;78.55;99909.59;5085835;28;20245;-67
2023/01/20 05:59:17;;;;;;;29.13;15.67;;;2.80;99.90;;;2.74;79.34;99914.63;5079825;28;20252;-66
2023/01/20 06:01:47;;;;;;;31.20;15.27;;;2.80;99.90;;;2.72;79.89;99923.91;5078064;28;20700;-66
2023/01/20 06:04:15;;;;;;;32.97;15.00;;;2.80;99.90;;;2.71;79.06;99940.00;5089965;28;20204;-65
2023/01/20 06:06:43;;;;;;;31.57;16.17;;;2.80;99.90;;;2.72;78.98;99951.03;5084191;28;20201;-67
2023/01/20 06:09:12;;;;;;;30.90;15.03;;;2.80;99.90;;;2.73;79.52;99958.72;5090143;28;20655;-65
2023/01/20 06:11:40;;;;;;;30.17;15.57;;;2.80;99.90;;;2.71;79.63;99960.34;5085200;28;20213;-68
2023/01/20 06:14:09;;;;;;;34.97;16.97;;;2.80;99.90;;;2.74;79.48;99965.50;5084996;28;20271;-67
2023/01/20 06:16:37;;;;;;;34.13;15.93;;;2.80;99.90;;;2.77;79.30;99974.91;5083126;28;20209;-66
2023/01/20 06:19:07;;;;;;;33.93;15.47;;;2.80;99.90;;;2.80;79.06;99967.28;5081302;28;20282;-66
2023/01/20 06:21:35;;;;;;;37.03;15.90;;;2.80;99.90;;;2.82;79.31;99983.47;5091970;28;20205;-64
2023/01/20 06:24:04;;;;;;;40.00;18.13;;;2.90;99.90;;;2.84;78.99;99977.56;5093197;28;20207;-67
2023/01/20 06:26:32;;;;;;;32.77;16.20;;;2.90;99.90;;;2.88;79.47;99992.06;5090772;28;20649;-64
2023/01/20 06:29:01;;;;;;;34.90;16.83;;;2.90;99.90;;;2.92;79.14;99994.69;5082311;28;20197;-67
2023/01/20 06:31:29;;;;;;;35.37;16.87;;;3.00;99.90;;;2.93;78.95;100001.47;5084464;28;20518;-66
2023/01/20 06:33:58;;;;;;;38.03;16.63;;;2.90;99.90;;;2.96;78.66;100002.38;5085594;28;20224;-68
2023/01/20 06:36:27;;;;;;;38.47;18.80;;;3.00;99.90;;;3.00;79.11;100013.47;5074914;28;20648;-72
2023/01/20 06:38:56;;;;;;;36.50;18.93;;;3.00;99.90;;;3.02;78.63;100019.44;5081003;28;20258;-66
2023/01/20 06:41:24;;;;;;;39.87;19.17;;;3.00;99.90;;;3.03;78.52;100011.84;5088307;28;20208;-65
2023/01/20 06:43:53;;;;;;;38.93;19.00;;;3.00;99.90;;;3.05;78.23;100014.41;5089602;28;20245;-68
2023/01/20 06:46:21;;;;;;;41.40;17.97;;;3.00;99.90;;;3.09;79.32;100011.09;5079930;28;20300;-69
2023/01/20 06:48:50;;;;;;;36.83;17.53;;;3.10;99.90;;;3.09;79.19;100026.38;5087568;28;20553;-67
2023/01/20 06:51:20;;;;;;;40.00;19.30;;;3.10;99.90;;;3.11;79.29;100024.72;5082249;28;20209;-67
2023/01/20 06:53:50;;;;;;;30.80;16.40;;;3.10;99.90;;;3.07;78.93;100025.50;5082464;28;20232;-67
2023/01/20 06:56:18;;;;;;;31.63;15.73;;;3.10;99.90;;;2.99;78.08;100011.78;5084320;28;20250;-68
2023/01/20 06:58:47;;;;;;;31.27;14.77;;;3.10;99.90;;;2.97;78.92;100029.53;5086149;28;20346;-68
2023/01/20 07:01:20;;;;;;;29.40;15.47;;;3.00;99.90;;;2.94;78.87;100029.47;5080033;28;20236;-70
2023/01/20 07:03:49;;;;;;;31.83;15.73;;;3.00;99.90;;;2.94;78.64;100028.63;5077028;28;20653;-67
2023/01/20 07:06:24;;;;;;;29.20;15.87;;;3.00;99.90;;;2.89;78.25;100024.31;5081263;28;20208;-70
2023/01/20 07:08:54;;;;;;;29.67;14.70;;;3.00;99.90;;;2.89;78.59;100029.41;5083498;28;20203;-68
2023/01/20 07:11:26;;;;;;;30.40;15.93;;;3.00;99.90;;;2.88;78.51;100032.78;5090458;28;20245;-69
2023/01/20 07:13:54;;;;;;;30.53;15.43;;;2.90;99.90;;;2.90;78.67;100038.75;5084373;28;20615;-67
2023/01/20 07:16:23;;;;;;;28.80;15.83;;;3.00;99.90;;;2.91;78.69;100034.53;5086651;28;20647;-69
2023/01/20 07:18:52;;;;;;;30.63;14.60;;;2.90;99.90;;;2.92;78.66;100051.50;5089315;28;20274;-71
2023/01/20 07:21:21;;;;;;;31.27;15.50;;;3.00;99.90;;;2.89;78.48;100046.38;5090865;28;20200;-69
2023/01/20 07:23:55;;;;;;;29.23;15.73;;;2.90;99.90;;;2.89;79.08;100052.31;5089138;28;20295;-70
2023/01/20 07:26:25;;;;;;;26.53;14.23;;;3.00;99.90;;;2.92;78.08;100063.38;5089028;28;20542;-72
2023/01/20 07:28:53;;;;;;;29.33;15.33;;;3.00;99.90;;;2.93;78.76;100063.41;5090069;28;20668;-71
2023/01/20 07:31:25;;;;;;;30.27;15.87;;;3.00;99.90;;;2.93;79.00;100057.47;5088351;28;20208;-70
2023/01/20 07:33:56;;;;;;;32.83;16.50;;;3.00;99.90;;;2.94;78.19;100060.03;5085011;28;20216;-70
2023/01/20 07:36:27;;;;;;;33.43;17.03;;;3.00;99.90;;;2.90;78.65;100058.25;5086730;28;20246;-70
2023/01/20 07:38:56;;;;;;;30.87;16.50;;;3.00;99.90;;;2.90;78.91;100063.34;5088880;28;20193;-68
2023/01/20 07:41:25;;;;;;;35.40;16.47;;;3.00;99.90;;;2.88;79.20;100065.88;5088453;28;20212;-70
2023/01/20 07:43:54;;;;;;;30.40;16.27;;;3.00;99.90;;;2.86;79.32;100062.41;5090417;28;20204;-71
2023/01/20 07:46:23;;;;;;;32.17;16.87;;;3.00;99.90;;;2.84;79.46;100061.53;5087357;28;20200;-67
2023/01/20 07:48:51;;;;;;;30.63;17.07;;;3.00;99.90;;;2.84;78.84;100065.78;5090037;28;20205;-70
2023/01/20 07:51:20;;;;;;;34.50;16.70;;;2.90;99.90;;;2.81;78.43;100068.25;5088958;28;20220;-68
2023/01/20 07:53:51;;;;;;;32.20;17.93;;;2.90;99.90;;;2.79;79.00;100069.91;5080196;28;20215;-69
2023/01/20 07:56:23;;;;;;;34.33;15.93;;;3.00;99.90;;;2.81;79.55;100068.25;5087215;28;20679;-72
2023/01/20 07:58:52;;;;;;;33.23;16.57;;;3.00;99.90;;;2.79;79.21;100064.81;5099474;28;20646;-74
2023/01/20 08:01:23;;;;;;;32.90;16.83;;;2.90;99.90;;;2.80;79.35;100066.53;5083726;28;20658;-75
2023/01/20 08:03:52;;;;;;;29.33;17.03;;;3.00;99.90;;;2.82;78.99;100068.28;5093070;28;20707;-74
2023/01/20 08:06:24;;;;;;;35.83;18.03;;;3.00;99.90;;;2.86;79.35;100066.66;5092493;28;20201;-74
2023/01/20 08:08:52;;;;;;;29.37;15.20;;;3.00;99.90;;;2.87;78.92;100069.25;5092631;28;20265;-72
2023/01/20 08:11:23;;;;;;;28.40;15.70;;;3.00;99.90;;;2.86;78.79;100075.13;5095149;28;20227;-73
2023/01/20 08:13:52;;;;;;;29.83;15.30;;;3.00;99.90;;;2.86;78.42;100070.06;5104405;28;20234;-73
2023/01/20 08:16:21;;;;;;;30.53;16.53;;;3.00;99.90;;;2.86;78.19;100067.50;5100694;28;20204;-73
2023/01/20 08:18:52;;;;;;;28.83;15.63;;;3.00;99.90;;;2.93;78.65;100068.50;5098350;28;20271;-73
2023/01/20 08:21:24;;;;;;;24.10;13.93;;;3.00;99.90;;;2.94;78.89;100071.88;5088641;28;20205;-72
2023/01/20 08:23:54;;;;;;;27.73;14.03;;;3.10;99.90;;;2.98;78.44;100076.22;5088264;28;20247;-71
2023/01/20 08:26:27;;;;;;;30.87;15.10;;;3.10;99.90;;;3.01;78.22;100086.47;5093511;28;20230;-71
2023/01/20 08:28:56;;;;;;;32.70;15.10;;;3.10;99.90;;;3.02;78.70;100078.88;5092455;28;20204;-70
2023/01/20 08:31:24;;;;;;;29.40;14.03;;;3.20;99.90;;;3.10;77.86;100081.56;5096440;28;20200;-71
2023/01/20 08:33:55;;;;;;;26.93;14.10;;;3.20;99.90;;;3.09;78.23;100070.53;5090674;28;20231;-72
2023/01/20 08:36:27;;;;;;;31.80;14.67;;;3.20;99.90;;;3.14;77.53;100073.16;5087262;28;20220;-72
2023/01/20 08:38:57;;;;;;;31.50;15.00;;;3.20;99.90;;;3.15;77.93;100078.25;5090862;28;20657;-71
2023/01/20 08:41:29;;;;;;;28.70;14.37;;;3.30;99.90;;;3.18;77.49;100079.16;5091482;28;20221;-67
2023/01/20 08:44:00;;;;;;;27.30;14.50;;;3.30;99.90;;;3.20;77.99;100087.66;5087524;28;20208;-71
2023/01/20 08:46:28;;;;;;;32.67;15.43;;;3.30;99.90;;;3.23;78.11;100077.53;5094007;28;20204;-69
2023/01/20 08:48:57;;;;;;;31.67;15.43;;;3.30;99.90;;;3.26;77.35;100082.69;5094486;28;20250;-70
2023/01/20 08:51:29;;;;;;;28.07;13.20;;;3.40;99.90;;;3.26;77.62;100087.78;5097575;28;20277;-71
2023/01/20 08:53:58;;;;;;;30.93;14.60;;;3.40;99.90;;;3.26;77.73;100086.09;5084306;28;20208;-70
2023/01/20 08:56:34;;;;;;;28.93;14.30;;;3.40;99.90;;;3.29;77.58;100098.88;5095668;28;20593;-70
2023/01/20 08:59:03;;;;;;;29.10;15.00;;;3.40;99.90;;;3.31;77.82;100093.81;5091737;28;20294;-70
2023/01/20 09:01:36;;;;;;;28.60;14.53;;;3.50;99.90;;;3.38;77.13;100099.03;5092573;28;20224;-70
2023/01/20 09:04:06;;;;;;;26.67;13.57;;;3.50;99.90;;;3.42;76.98;100091.47;5082562;28;20258;-71
2023/01/20 09:06:41;;;;;;;26.93;13.20;;;3.50;99.90;;;3.48;76.88;100091.59;5084442;28;20212;-72
2023/01/20 09:09:10;;;;;;;27.63;13.23;;;3.60;99.90;;;3.56;77.09;100090.03;5083165;28;20192;-68
2023/01/20 09:11:43;;;;;;;25.17;14.30;;;3.60;99.90;;;3.59;75.82;100087.53;5092058;28;20218;-69
2023/01/20 09:14:12;;;;;;;25.23;13.27;;;3.60;99.90;;;3.57;75.42;100087.53;5071878;28;20265;-70
2023/01/20 09:16:40;;;;;;;26.47;13.37;;;3.70;99.90;;;3.56;75.81;100092.56;5091763;28;20225;-69
2023/01/20 09:19:08;;;;;;;25.83;12.90;;;3.70;99.90;;;3.61;76.02;100096.06;5087902;28;20244;-70
2023/01/20 09:21:37;;;;;;;25.77;13.83;;;3.70;99.90;;;3.66;75.52;100098.69;5088877;28;20206;-69
2023/01/20 09:24:07;;;;;;;20.63;11.87;;;3.80;99.90;;;3.69;75.50;100114.03;5087367;28;20196;-70
2023/01/20 09:26:38;;;;;;;26.30;12.73;;;3.80;99.90;;;3.70;75.20;100111.50;5090771;28;20201;-69
2023/01/20 09:29:11;;;;;;;26.37;12.17;;;3.80;99.90;;;3.72;75.04;100114.06;5089555;28;20193;-68
2023/01/20 09:31:43;;;;;;;23.90;13.03;;;3.90;99.90;;;3.76;75.24;100121.81;5087586;28;20207;-71
2023/01/20 09:34:18;;;;;;;27.57;13.17;;;3.90;99.90;;;3.73;75.16;100111.56;5043112;28;20281;-69
2023/01/20 09:36:51;;;;;;;20.10;11.50;;;3.90;99.90;;;3.74;74.81;100120.91;5090966;28;20216;-70
2023/01/20 09:45:24;;;;;;;20.20;12.40;;;3.80;99.90;;;3.63;74.40;100127.50;5089624;28;20652;-69
2023/01/20 09:48:12;;;;;;;29.00;15.03;;;3.80;99.90;;;3.60;74.51;100140.19;5079245;28;20193;-70
2023/01/20 09:53:50;;;;;;;27.17;14.00;;;3.80;99.90;;;3.59;74.77;100136.78;5091496;28;20208;-68
2023/01/20 09:56:22;;;;;;;25.60;12.97;;;3.80;99.90;;;3.61;74.28;100147.88;5091202;28;20244;-68
2023/01/20 09:58:57;;;;;;;23.87;13.57;;;3.80;99.90;;;3.61;74.90;100150.44;5084922;28;20297;-70
2023/01/20 10:01:36;;;;;;;24.53;13.23;;;3.80;99.90;;;3.60;74.31;100145.28;5090787;28;20262;-69
2023/01/20 10:04:13;;;;;;;29.17;14.27;;;3.80;99.90;;;3.57;74.55;100145.22;5088696;28;20193;-70
2023/01/20 10:06:45;;;;;;;26.27;14.23;;;3.80;99.90;;;3.54;74.56;100143.50;5089164;28;20200;-69
2023/01/20 10:09:25;;;;;;;23.27;12.97;;;3.70;99.90;;;3.57;75.41;100145.22;5090020;28;20826;-69
2023/01/20 10:12:02;;;;;;;20.90;11.73;;;3.80;99.90;;;3.54;74.56;100148.59;5090924;28;20208;-69
2023/01/20 10:14:38;;;;;;;23.20;13.40;;;3.70;99.90;;;3.52;74.20;100145.16;5090769;28;20206;-70
2023/01/20 10:17:16;;;;;;;23.20;12.60;;;3.70;99.90;;;3.52;74.41;100137.50;5088730;28;20208;-68
2023/01/20 10:19:55;;;;;;;24.63;13.43;;;3.70;99.90;;;3.56;75.15;100138.41;5088483;28;20304;-69
2023/01/20 10:22:31;;;;;;;25.27;13.87;;;3.70;99.90;;;3.54;75.07;100130.75;5091199;28;20258;-70
2023/01/20 10:25:07;;;;;;;24.30;13.63;;;3.70;99.90;;;3.50;74.75;100144.28;5088221;28;20462;-69
2023/01/20 10:27:42;;;;;;;25.17;14.60;;;3.70;99.90;;;3.50;75.42;100153.59;5089976;28;20623;-70
2023/01/20 10:30:13;;;;;;;26.90;14.57;;;3.70;99.90;;;3.47;74.95;100149.31;5088453;28;20201;-69
2023/01/20 10:32:52;;;;;;;23.53;13.40;;;3.70;99.90;;;3.47;75.17;100148.47;5076807;28;20582;-70
2023/01/20 10:35:24;;;;;;;26.73;15.03;;;3.60;99.90;;;3.49;75.75;100151.88;5073890;28;20196;-69
2023/01/20 10:37:54;;;;;;;25.03;14.43;;;3.60;99.90;;;3.53;75.07;100148.56;5081269;28;20231;-70
2023/01/20 10:40:34;;;;;;;27.40;14.97;;;3.60;99.90;;;3.53;75.21;100156.19;5077147;28;20734;-69
2023/01/20 10:43:11;;;;;;;22.13;13.73;;;3.70;99.90;;;3.51;75.56;100158.72;5090081;28;20189;-70
2023/01/20 10:46:04;;;;;;;27.03;13.73;;;3.70;99.90;;;3.48;74.78;100160.34;5072843;28;20258;-70